sensor_id;sensor_type;location;lat;lon;timestamp;pressure;altitude;pressure_sealevel;temperature;humidity
22311;BME280;11323;49.610;11.016;2023-03-25T00:03:43;97419.69;;;16.51;69.37
22311;BME280;11323;49.610;11.016;2023-03-25T00:08:45;97402.09;;;16.51;69.12
22311;BME280;11323;49.610;11.016;2023-03-25T00:13:46;97405.13;;;16.48;69.39
22311;BME280;11323;49.610;11.016;2023-03-25T00:18:47;97389.34;;;16.48;69.25
22311;BME280;11323;49.610;11.016;2023-03-25T00:23:49;97388.72;;;16.46;69.39
22311;BME280;11323;49.610;11.016;2023-03-25T00:28:49;97376.78;;;16.44;69.35
22311;BME280;11323;49.610;11.016;2023-03-25T00:33:50;97378.81;;;16.42;69.31
22311;BME280;11323;49.610;11.016;2023-03-25T00:38:50;97365.66;;;16.42;69.09
22311;BME280;11323;49.610;11.016;2023-03-25T00:43:53;97357.34;;;16.38;69.20
22311;BME280;11323;49.610;11.016;2023-03-25T00:48:55;97362.41;;;16.40;69.28
22311;BME280;11323;49.610;11.016;2023-03-25T00:53:57;97344.81;;;16.40;69.14
22311;BME280;11323;49.610;11.016;2023-03-25T00:59:00;97387.28;;;16.37;69.10
22311;BME280;11323;49.610;11.016;2023-03-25T01:04:00;97366.66;;;16.34;69.02
22311;BME280;11323;49.610;11.016;2023-03-25T01:09:04;97373.53;;;16.35;69.28
22311;BME280;11323;49.610;11.016;2023-03-25T01:14:07;97369.50;;;16.32;69.35
22311;BME280;11323;49.610;11.016;2023-03-25T01:19:08;97364.44;;;16.31;69.00
22311;BME280;11323;49.610;11.016;2023-03-25T01:24:11;97352.09;;;16.31;69.32
22311;BME280;11323;49.610;11.016;2023-03-25T01:29:14;97348.44;;;16.26;69.27
22311;BME280;11323;49.610;11.016;2023-03-25T01:34:15;97358.56;;;16.29;69.18
22311;BME280;11323;49.610;11.016;2023-03-25T01:39:17;97342.78;;;16.22;69.24
22311;BME280;11323;49.610;11.016;2023-03-25T01:49:21;97340.75;;;16.24;69.05
22311;BME280;11323;49.610;11.016;2023-03-25T01:54:25;97348.84;;;16.23;69.00
22311;BME280;11323;49.610;11.016;2023-03-25T01:59:27;97342.78;;;16.22;68.98
22311;BME280;11323;49.610;11.016;2023-03-25T02:04:34;97345.63;;;16.20;69.13
22311;BME280;11323;49.610;11.016;2023-03-25T02:09:38;97328.22;;;16.19;68.94
22311;BME280;11323;49.610;11.016;2023-03-25T02:14:40;97321.34;;;16.18;69.25
22311;BME280;11323;49.610;11.016;2023-03-25T02:25:33;97320.50;;;16.11;69.36
22311;BME280;11323;49.610;11.016;2023-03-25T02:31:03;97330.63;;;16.14;69.15
22311;BME280;11323;49.610;11.016;2023-03-25T02:41:45;97352.47;;;16.08;69.21
22311;BME280;11323;49.610;11.016;2023-03-25T02:46:54;97358.53;;;16.09;69.40
22311;BME280;11323;49.610;11.016;2023-03-25T02:52:17;97356.50;;;16.04;69.32
22311;BME280;11323;49.610;11.016;2023-03-25T02:57:20;97358.91;;;16.05;69.12
22311;BME280;11323;49.610;11.016;2023-03-25T03:02:24;97360.75;;;16.05;69.24
22311;BME280;11323;49.610;11.016;2023-03-25T03:07:34;97364.38;;;16.04;69.25
22311;BME280;11323;49.610;11.016;2023-03-25T03:12:51;97355.69;;;16.03;69.37
22311;BME280;11323;49.610;11.016;2023-03-25T03:23:29;97346.78;;;15.98;69.62
22311;BME280;11323;49.610;11.016;2023-03-25T03:28:49;97350.00;;;16.00;69.58
22311;BME280;11323;49.610;11.016;2023-03-25T03:33:59;97343.53;;;15.96;69.22
22311;BME280;11323;49.610;11.016;2023-03-25T03:39:05;97352.44;;;15.95;69.68
22311;BME280;11323;49.610;11.016;2023-03-25T03:44:13;97352.44;;;15.95;69.46
22311;BME280;11323;49.610;11.016;2023-03-25T03:49:18;97349.19;;;15.93;69.56
22311;BME280;11323;49.610;11.016;2023-03-25T03:54:24;97343.72;;;15.87;69.55
22311;BME280;11323;49.610;11.016;2023-03-25T03:59:48;97345.53;;;15.94;69.29
22311;BME280;11323;49.610;11.016;2023-03-25T04:04:53;97335.84;;;15.87;69.44
22311;BME280;11323;49.610;11.016;2023-03-25T04:09:59;97366.56;;;15.94;69.63
22311;BME280;11323;49.610;11.016;2023-03-25T04:15:04;97376.25;;;15.93;69.58
22311;BME280;11323;49.610;11.016;2023-03-25T04:20:05;97363.31;;;15.92;69.66
22311;BME280;11323;49.610;11.016;2023-03-25T04:25:08;97366.34;;;15.88;69.41
22311;BME280;11323;49.610;11.016;2023-03-25T04:30:09;97370.59;;;15.89;69.56
22311;BME280;11323;49.610;11.016;2023-03-25T04:35:12;97369.38;;;15.85;69.61
22311;BME280;11323;49.610;11.016;2023-03-25T04:40:12;97381.50;;;15.86;69.62
22311;BME280;11323;49.610;11.016;2023-03-25T04:45:15;97378.28;;;15.84;69.63
22311;BME280;11323;49.610;11.016;2023-03-25T04:50:22;97384.50;;;15.83;69.47
22311;BME280;11323;49.610;11.016;2023-03-25T04:55:23;97384.50;;;15.83;69.62
22311;BME280;11323;49.610;11.016;2023-03-25T05:00:25;97393.03;;;15.85;69.74
22311;BME280;11323;49.610;11.016;2023-03-25T05:05:26;97399.28;;;15.84;69.63
22311;BME280;11323;49.610;11.016;2023-03-25T05:10:26;97400.09;;;15.85;69.76
22311;BME280;11323;49.610;11.016;2023-03-25T05:15:31;97409.16;;;15.82;69.58
22311;BME280;11323;49.610;11.016;2023-03-25T05:20:36;97415.78;;;15.78;69.57
22311;BME280;11323;49.610;11.016;2023-03-25T05:25:38;97421.03;;;15.78;69.47
22311;BME280;11323;49.610;11.016;2023-03-25T05:30:40;97416.78;;;15.77;69.72
22311;BME280;11323;49.610;11.016;2023-03-25T05:35:41;97424.28;;;15.80;69.53
22311;BME280;11323;49.610;11.016;2023-03-25T05:40:43;97431.38;;;15.80;69.42
22311;BME280;11323;49.610;11.016;2023-03-25T05:45:44;97436.22;;;15.76;69.71
22311;BME280;11323;49.610;11.016;2023-03-25T05:50:46;97432.75;;;15.75;69.72
22311;BME280;11323;49.610;11.016;2023-03-25T05:55:46;97453.41;;;15.79;69.64
22311;BME280;11323;49.610;11.016;2023-03-25T06:00:50;97460.66;;;15.77;69.35
22311;BME280;11323;49.610;11.016;2023-03-25T06:05:51;97457.41;;;15.74;69.70
22311;BME280;11323;49.610;11.016;2023-03-25T06:10:54;97467.91;;;15.74;69.66
22311;BME280;11323;49.610;11.016;2023-03-25T06:15:57;97470.53;;;15.74;69.52
22311;BME280;11323;49.610;11.016;2023-03-25T06:20:59;97467.50;;;15.71;69.56
22311;BME280;11323;49.610;11.016;2023-03-25T06:26:00;97474.00;;;15.75;69.53
22311;BME280;11323;49.610;11.016;2023-03-25T06:31:00;97463.03;;;15.71;69.68
22311;BME280;11323;49.610;11.016;2023-03-25T06:36:06;97462.25;;;15.71;69.49
22311;BME280;11323;49.610;11.016;2023-03-25T06:41:07;97472.75;;;15.71;69.60
22311;BME280;11323;49.610;11.016;2023-03-25T06:46:08;97471.50;;;15.67;69.63
22311;BME280;11323;49.610;11.016;2023-03-25T06:51:31;97469.50;;;15.69;69.54
22311;BME280;11323;49.610;11.016;2023-03-25T06:56:31;97461.19;;;15.65;69.55
22311;BME280;11323;49.610;11.016;2023-03-25T07:01:32;97474.75;;;15.69;69.76
22311;BME280;11323;49.610;11.016;2023-03-25T07:06:32;97468.66;;;15.62;69.84
22311;BME280;11323;49.610;11.016;2023-03-25T07:11:33;97457.94;;;15.63;69.86
22311;BME280;11323;49.610;11.016;2023-03-25T07:16:34;97469.28;;;15.64;69.78
22311;BME280;11323;49.610;11.016;2023-03-25T07:21:35;97461.41;;;15.64;69.55
22311;BME280;11323;49.610;11.016;2023-03-25T07:26:35;97463.03;;;15.65;69.74
22311;BME280;11323;49.610;11.016;2023-03-25T07:31:35;97454.53;;;15.63;69.69
22311;BME280;11323;49.610;11.016;2023-03-25T07:36:36;97465.63;;;15.58;69.96
22311;BME280;11323;49.610;11.016;2023-03-25T07:41:36;97466.03;;;15.62;69.83
22311;BME280;11323;49.610;11.016;2023-03-25T07:46:57;97476.72;;;15.60;70.05
22311;BME280;11323;49.610;11.016;2023-03-25T07:51:57;97474.91;;;15.60;70.10
22311;BME280;11323;49.610;11.016;2023-03-25T07:56:57;97481.78;;;15.62;70.15
22311;BME280;11323;49.610;11.016;2023-03-25T08:01:59;97472.28;;;15.60;69.95
22311;BME280;11323;49.610;11.016;2023-03-25T08:06:59;97480.59;;;15.64;69.94
22311;BME280;11323;49.610;11.016;2023-03-25T08:12:00;97478.34;;;15.61;69.92
22311;BME280;11323;49.610;11.016;2023-03-25T08:17:01;97467.25;;;15.59;69.94
22311;BME280;11323;49.610;11.016;2023-03-25T08:22:01;97476.91;;;15.58;70.11
22311;BME280;11323;49.610;11.016;2023-03-25T08:27:02;97478.97;;;15.63;69.95
22311;BME280;11323;49.610;11.016;2023-03-25T08:32:02;97470.91;;;15.65;69.99
22311;BME280;11323;49.610;11.016;2023-03-25T08:37:03;97487.66;;;15.64;70.15
22311;BME280;11323;49.610;11.016;2023-03-25T08:42:06;97479.59;;;15.65;69.69
22311;BME280;11323;49.610;11.016;2023-03-25T08:47:07;97477.53;;;15.60;69.89
22311;BME280;11323;49.610;11.016;2023-03-25T08:52:08;97480.38;;;15.66;70.03
22311;BME280;11323;49.610;11.016;2023-03-25T08:57:12;97467.66;;;15.63;70.06
22311;BME280;11323;49.610;11.016;2023-03-25T09:02:13;97463.41;;;15.62;70.15
22311;BME280;11323;49.610;11.016;2023-03-25T09:07:13;97465.25;;;15.68;69.88
22311;BME280;11323;49.610;11.016;2023-03-25T09:12:15;97462.63;;;15.68;70.14
22311;BME280;11323;49.610;11.016;2023-03-25T09:17:15;97459.63;;;15.71;70.04
22311;BME280;11323;49.610;11.016;2023-03-25T09:22:16;97466.13;;;15.75;69.71
22311;BME280;11323;49.610;11.016;2023-03-25T09:27:17;97460.66;;;15.77;69.70
22311;BME280;11323;49.610;11.016;2023-03-25T09:32:17;97457.78;;;15.71;69.92
22311;BME280;11323;49.610;11.016;2023-03-25T09:37:18;97451.94;;;15.69;70.00
22311;BME280;11323;49.610;11.016;2023-03-25T09:47:51;97457.22;;;15.76;70.62
22311;BME280;11323;49.610;11.016;2023-03-25T09:52:57;97445.69;;;15.77;71.00
22311;BME280;11323;49.610;11.016;2023-03-25T09:58:04;97461.91;;;15.81;71.28
22311;BME280;11323;49.610;11.016;2023-03-25T10:13:39;97439.66;;;15.83;70.51
22311;BME280;11323;49.610;11.016;2023-03-25T10:24:09;97434.81;;;15.80;70.14
22311;BME280;11323;49.610;11.016;2023-03-25T10:29:16;97427.91;;;15.79;70.48
22311;BME280;11323;49.610;11.016;2023-03-25T10:34:22;97428.91;;;15.78;70.39
22311;BME280;11323;49.610;11.016;2023-03-25T10:39:30;97444.09;;;15.76;70.25
22311;BME280;11323;49.610;11.016;2023-03-25T10:44:39;97445.31;;;15.80;70.41
22311;BME280;11323;49.610;11.016;2023-03-25T10:49:40;97424.91;;;15.82;70.34
22311;BME280;11323;49.610;11.016;2023-03-25T10:54:44;97422.66;;;15.79;70.09
22311;BME280;11323;49.610;11.016;2023-03-25T11:00:04;97417.03;;;15.82;70.16
22311;BME280;11323;49.610;11.016;2023-03-25T11:05:06;97415.78;;;15.78;70.17
22311;BME280;11323;49.610;11.016;2023-03-25T11:10:17;97429.94;;;15.77;70.23
22311;BME280;11323;49.610;11.016;2023-03-25T11:15:30;97433.59;;;15.76;70.25
22311;BME280;11323;49.610;11.016;2023-03-25T11:20:45;97489.75;;;15.75;70.37
22311;BME280;11323;49.610;11.016;2023-03-25T11:25:52;97486.88;;;15.70;70.21
22311;BME280;11323;49.610;11.016;2023-03-25T11:31:22;97460.88;;;15.75;70.87
22311;BME280;11323;49.610;11.016;2023-03-25T11:36:27;97434.97;;;15.72;70.83
22311;BME280;11323;49.610;11.016;2023-03-25T11:41:30;97420.03;;;15.79;71.34
22311;BME280;11323;49.610;11.016;2023-03-25T11:46:32;97409.78;;;15.84;71.05
22311;BME280;11323;49.610;11.016;2023-03-25T11:51:34;97401.75;;;15.93;71.45
22311;BME280;11323;49.610;11.016;2023-03-25T11:56:40;97417.16;;;16.02;71.34
22311;BME280;11323;49.610;11.016;2023-03-25T12:01:46;97405.19;;;16.00;71.57
22311;BME280;11323;49.610;11.016;2023-03-25T12:07:08;97400.94;;;15.99;71.29
22311;BME280;11323;49.610;11.016;2023-03-25T12:12:26;97384.16;;;16.00;71.09
22311;BME280;11323;49.610;11.016;2023-03-25T12:17:48;97376.69;;;15.97;70.72
22311;BME280;11323;49.610;11.016;2023-03-25T12:23:10;97366.78;;;15.99;70.95
22311;BME280;11323;49.610;11.016;2023-03-25T12:28:27;97339.28;;;15.95;70.66
22311;BME280;11323;49.610;11.016;2023-03-25T12:38:52;97342.31;;;15.92;70.81
22311;BME280;11323;49.610;11.016;2023-03-25T12:44:00;97346.56;;;15.93;70.75
22311;BME280;11323;49.610;11.016;2023-03-25T13:05:39;97358.47;;;15.88;70.55
22311;BME280;11323;49.610;11.016;2023-03-25T13:10:49;97358.88;;;15.85;70.37
22311;BME280;11323;49.610;11.016;2023-03-25T13:16:10;97356.03;;;15.87;70.50
22311;BME280;11323;49.610;11.016;2023-03-25T13:21:31;97364.75;;;15.87;70.44
22311;BME280;11323;49.610;11.016;2023-03-25T13:26:34;97427.97;;;15.86;70.40
22311;BME280;11323;49.610;11.016;2023-03-25T13:31:41;97445.38;;;15.87;70.31
22311;BME280;11323;49.610;11.016;2023-03-25T13:36:55;97426.97;;;15.87;70.36
22311;BME280;11323;49.610;11.016;2023-03-25T13:42:03;97423.56;;;15.86;70.52
22311;BME280;11323;49.610;11.016;2023-03-25T13:47:19;97400.91;;;15.85;70.69
22311;BME280;11323;49.610;11.016;2023-03-25T13:52:25;97389.19;;;15.88;70.80
22311;BME280;11323;49.610;11.016;2023-03-25T13:57:59;97382.34;;;15.94;71.26
22311;BME280;11323;49.610;11.016;2023-03-25T14:13:44;97423.59;;;16.00;71.60
22311;BME280;11323;49.610;11.016;2023-03-25T14:18:54;97386.41;;;16.03;71.12
22311;BME280;11323;49.610;11.016;2023-03-25T14:24:44;97382.38;;;16.07;71.37
22311;BME280;11323;49.610;11.016;2023-03-25T14:34:33;97380.97;;;16.11;71.30
22311;BME280;11323;49.610;11.016;2023-03-25T14:44:48;97396.97;;;16.16;71.49
22311;BME280;11323;49.610;11.016;2023-03-25T14:50:00;97389.69;;;16.18;71.65
22311;BME280;11323;49.610;11.016;2023-03-25T14:56:11;97386.66;;;16.21;71.70
22311;BME280;11323;49.610;11.016;2023-03-25T15:00:44;97391.72;;;16.23;71.62
22311;BME280;11323;49.610;11.016;2023-03-25T15:05:54;97371.09;;;16.27;71.66
22311;BME280;11323;49.610;11.016;2023-03-25T15:16:16;97357.13;;;16.33;71.87
22311;BME280;11323;49.610;11.016;2023-03-25T15:21:18;97364.44;;;16.31;71.54
22311;BME280;11323;49.610;11.016;2023-03-25T15:26:35;97367.06;;;16.31;71.41
22311;BME280;11323;49.610;11.016;2023-03-25T15:37:13;97365.03;;;16.26;70.91
22311;BME280;11323;49.610;11.016;2023-03-25T15:42:54;97361.59;;;16.26;70.81
22311;BME280;11323;49.610;11.016;2023-03-25T15:48:13;97357.34;;;16.25;70.90
22311;BME280;11323;49.610;11.016;2023-03-25T15:58:39;97366.66;;;16.20;70.64
22311;BME280;11323;49.610;11.016;2023-03-25T16:03:43;97378.97;;;16.20;70.55
22311;BME280;11323;49.610;11.016;2023-03-25T16:08:45;97360.16;;;16.16;70.56
22311;BME280;11323;49.610;11.016;2023-03-25T16:14:03;97359.94;;;16.18;70.83
22311;BME280;11323;49.610;11.016;2023-03-25T16:19:08;97361.78;;;16.17;70.38
22311;BME280;11323;49.610;11.016;2023-03-25T16:24:11;97356.53;;;16.17;70.48
22311;BME280;11323;49.610;11.016;2023-03-25T16:29:22;97367.03;;;16.17;70.76
22311;BME280;11323;49.610;11.016;2023-03-25T16:34:24;97363.78;;;16.15;70.19
22311;BME280;11323;49.610;11.016;2023-03-25T16:39:25;97373.91;;;16.12;70.64
22311;BME280;11323;49.610;11.016;2023-03-25T16:44:27;97368.66;;;16.12;70.44
22311;BME280;11323;49.610;11.016;2023-03-25T16:49:33;97365.59;;;16.08;70.64
22311;BME280;11323;49.610;11.016;2023-03-25T16:54:43;97369.84;;;16.09;70.64
22311;BME280;11323;49.610;11.016;2023-03-25T16:59:45;97373.66;;;16.06;70.60
22311;BME280;11323;49.610;11.016;2023-03-25T17:04:46;97373.50;;;16.08;70.25
22311;BME280;11323;49.610;11.016;2023-03-25T17:09:49;97380.75;;;16.06;70.74
22311;BME280;11323;49.610;11.016;2023-03-25T17:14:55;97394.91;;;16.05;70.54
22311;BME280;11323;49.610;11.016;2023-03-25T17:20:00;97402.16;;;16.03;70.50
22311;BME280;11323;49.610;11.016;2023-03-25T17:25:15;97405.00;;;16.01;70.45
22311;BME280;11323;49.610;11.016;2023-03-25T17:30:39;97407.81;;;16.00;70.27
22311;BME280;11323;49.610;11.016;2023-03-25T17:35:43;97399.34;;;15.98;70.29
22311;BME280;11323;49.610;11.016;2023-03-25T17:40:44;97410.25;;;15.95;70.63
22311;BME280;11323;49.610;11.016;2023-03-25T17:45:45;97410.03;;;15.96;70.99
22311;BME280;11323;49.610;11.016;2023-03-25T17:50:50;97410.69;;;16.05;71.00
22311;BME280;11323;49.610;11.016;2023-03-25T17:55:51;97412.69;;;16.03;71.04
22311;BME280;11323;49.610;11.016;2023-03-25T18:00:51;97406.63;;;16.02;70.76
22311;BME280;11323;49.610;11.016;2023-03-25T18:05:52;97409.44;;;16.01;70.75
22311;BME280;11323;49.610;11.016;2023-03-25T18:10:54;97407.44;;;16.03;71.15
22311;BME280;11323;49.610;11.016;2023-03-25T18:15:54;97415.56;;;16.08;71.21
22311;BME280;11323;49.610;11.016;2023-03-25T18:20:55;97413.31;;;16.12;71.11
22311;BME280;11323;49.610;11.016;2023-03-25T18:25:56;97425.66;;;16.11;70.82
22311;BME280;11323;49.610;11.016;2023-03-25T18:30:57;97420.00;;;16.14;70.94
22311;BME280;11323;49.610;11.016;2023-03-25T18:36:00;97414.94;;;16.13;71.40
22311;BME280;11323;49.610;11.016;2023-03-25T18:41:00;97428.13;;;16.19;71.18
22311;BME280;11323;49.610;11.016;2023-03-25T18:46:02;97428.13;;;16.19;71.37
22311;BME280;11323;49.610;11.016;2023-03-25T18:51:03;97433.97;;;16.21;71.20
22311;BME280;11323;49.610;11.016;2023-03-25T18:56:04;97432.97;;;16.23;71.22
22311;BME280;11323;49.610;11.016;2023-03-25T19:01:06;97446.31;;;16.21;70.52
22311;BME280;11323;49.610;11.016;2023-03-25T19:06:12;97446.53;;;16.19;70.60
22311;BME280;11323;49.610;11.016;2023-03-25T19:11:13;97450.16;;;16.18;70.31
22311;BME280;11323;49.610;11.016;2023-03-25T19:16:15;97462.88;;;16.15;70.32
22311;BME280;11323;49.610;11.016;2023-03-25T19:21:17;97455.56;;;16.10;70.09
22311;BME280;11323;49.610;11.016;2023-03-25T19:26:18;97468.94;;;16.15;70.34
22311;BME280;11323;49.610;11.016;2023-03-25T19:31:18;97460.06;;;16.16;70.45
22311;BME280;11323;49.610;11.016;2023-03-25T19:36:19;97463.31;;;16.18;70.61
22311;BME280;11323;49.610;11.016;2023-03-25T19:41:22;97444.09;;;16.25;70.46
22311;BME280;11323;49.610;11.016;2023-03-25T19:46:22;97436.81;;;16.27;70.48
22311;BME280;11323;49.610;11.016;2023-03-25T19:51:23;97452.00;;;16.31;70.44
22311;BME280;11323;49.610;11.016;2023-03-25T19:56:23;97466.38;;;16.35;70.17
22311;BME280;11323;49.610;11.016;2023-03-25T20:01:24;97469.44;;;16.39;70.27
22311;BME280;11323;49.610;11.016;2023-03-25T20:06:24;97471.25;;;16.45;70.07
22311;BME280;11323;49.610;11.016;2023-03-25T20:11:25;97461.34;;;16.47;69.99
22311;BME280;11323;49.610;11.016;2023-03-25T20:16:25;97481.38;;;16.48;70.05
22311;BME280;11323;49.610;11.016;2023-03-25T20:21:27;97478.38;;;16.51;70.03
22311;BME280;11323;49.610;11.016;2023-03-25T20:26:28;97476.75;;;16.57;69.86
22311;BME280;11323;49.610;11.016;2023-03-25T20:31:28;97478.78;;;16.62;70.03
22311;BME280;11323;49.610;11.016;2023-03-25T20:36:29;97485.28;;;16.66;70.03
22311;BME280;11323;49.610;11.016;2023-03-25T20:41:33;97498.84;;;16.70;69.73
22311;BME280;11323;49.610;11.016;2023-03-25T20:46:33;97502.28;;;16.70;70.00
22311;BME280;11323;49.610;11.016;2023-03-25T20:51:34;97499.88;;;16.75;70.09
22311;BME280;11323;49.610;11.016;2023-03-25T20:56:36;97502.28;;;16.77;69.77
22311;BME280;11323;49.610;11.016;2023-03-25T21:01:36;97504.72;;;16.78;69.81
22311;BME280;11323;49.610;11.016;2023-03-25T21:06:37;97493.34;;;16.64;67.89
22311;BME280;11323;49.610;11.016;2023-03-25T21:11:37;97506.50;;;16.64;68.83
22311;BME280;11323;49.610;11.016;2023-03-25T21:16:39;97497.41;;;16.74;68.66
22311;BME280;11323;49.610;11.016;2023-03-25T21:21:39;97507.56;;;16.77;68.78
22311;BME280;11323;49.610;11.016;2023-03-25T21:26:40;97497.25;;;16.75;68.92
22311;BME280;11323;49.610;11.016;2023-03-25T21:31:40;97501.69;;;16.81;69.24
22311;BME280;11323;49.610;11.016;2023-03-25T21:36:41;97499.69;;;16.83;69.30
22311;BME280;11323;49.610;11.016;2023-03-25T21:41:42;97497.84;;;16.84;69.02
22311;BME280;11323;49.610;11.016;2023-03-25T21:46:42;97497.03;;;16.83;69.01
22311;BME280;11323;49.610;11.016;2023-03-25T21:51:43;97507.97;;;16.87;68.92
22311;BME280;11323;49.610;11.016;2023-03-25T21:56:49;97506.97;;;16.88;69.16
22311;BME280;11323;49.610;11.016;2023-03-25T22:01:53;97498.88;;;16.90;69.27
22311;BME280;11323;49.610;11.016;2023-03-25T22:06:55;97518.53;;;16.94;68.85
22311;BME280;11323;49.610;11.016;2023-03-25T22:11:55;97508.81;;;16.94;69.31
22311;BME280;11323;49.610;11.016;2023-03-25T22:16:56;97506.38;;;16.93;69.23
22311;BME280;11323;49.610;11.016;2023-03-25T22:21:56;97506.00;;;16.96;69.11
22311;BME280;11323;49.610;11.016;2023-03-25T22:26:57;97510.44;;;16.95;69.06
22311;BME280;11323;49.610;11.016;2023-03-25T22:31:57;97505.59;;;16.99;69.04
22311;BME280;11323;49.610;11.016;2023-03-25T22:37:06;97506.63;;;16.98;69.10
22311;BME280;11323;49.610;11.016;2023-03-25T22:42:06;97508.25;;;16.99;69.15
22311;BME280;11323;49.610;11.016;2023-03-25T22:47:06;97513.69;;;16.97;69.50
22311;BME280;11323;49.610;11.016;2023-03-25T22:52:07;97522.34;;;16.85;68.20
22311;BME280;11323;49.610;11.016;2023-03-25T22:57:07;97527.81;;;16.76;68.66
22311;BME280;11323;49.610;11.016;2023-03-25T23:02:09;97513.03;;;16.75;68.32
22311;BME280;11323;49.610;11.016;2023-03-25T23:07:12;97514.84;;;16.75;68.12
22311;BME280;11323;49.610;11.016;2023-03-25T23:12:14;97511.19;;;16.69;68.39
22311;BME280;11323;49.610;11.016;2023-03-25T23:17:16;97515.03;;;16.66;68.51
22311;BME280;11323;49.610;11.016;2023-03-25T23:22:16;97525.75;;;16.65;68.90
22311;BME280;11323;49.610;11.016;2023-03-25T23:27:16;97514.00;;;16.61;68.36
22311;BME280;11323;49.610;11.016;2023-03-25T23:32:17;97504.66;;;16.51;68.50
22311;BME280;11323;49.610;11.016;2023-03-25T23:37:17;97508.72;;;16.54;68.87
22311;BME280;11323;49.610;11.016;2023-03-25T23:42:18;97505.06;;;16.48;68.67
22311;BME280;11323;49.610;11.016;2023-03-25T23:47:19;97515.56;;;16.48;68.49
22311;BME280;11323;49.610;11.016;2023-03-25T23:52:19;97521.66;;;16.49;68.70
22311;BME280;11323;49.610;11.016;2023-03-25T23:57:20;97517.59;;;16.46;68.44
